Time;durP1;ratioP1;P1;durP2;ratioP2;P2;SDS_P1;SDS_P2;PMS_P1;PMS_P2;Temp;Humidity;BMP_temperature;BMP_pressure;BME280_temperature;BME280_humidity;BME280_pressure;Samples;Min_cycle;Max_cycle;Signal;HPM_P1;HPM_P2
2021/04/12 00:01:54;;;;;;;3.13;1.50;;;;;;;;;;10323119;28;20210;-70
2021/04/12 00:06:58;;;;;;;1.13;1.00;;;;;;;;;;10324631;28;20195;-71
2021/04/12 00:12:03;;;;;;;1.30;1.20;;;;;;;;;;10327110;28;20211;-70
2021/04/12 00:17:08;;;;;;;1.50;1.17;;;;;;;;;;10324823;28;20210;-68
2021/04/12 00:22:12;;;;;;;1.63;1.23;;;;;;;;;;10325048;28;20230;-68
2021/04/12 00:27:18;;;;;;;2.23;1.30;;;;;;;;;;10316818;28;20619;-71
2021/04/12 00:32:23;;;;;;;1.33;1.10;;;;;;;;;;10333421;28;20289;-71
2021/04/12 00:37:28;;;;;;;1.90;1.10;;;;;;;;;;10333655;28;20671;-70
2021/04/12 00:42:48;;;;;;;2.53;1.17;;;;;;;;;;10318044;28;20219;-70
2021/04/12 00:47:54;;;;;;;1.63;1.20;;;;;;;;;;10331647;28;20195;-70
2021/04/12 00:53:10;;;;;;;2.33;1.30;;;;;;;;;;10322444;28;20210;-70
2021/04/12 00:58:17;;;;;;;1.33;1.20;;;;;;;;;;10322248;28;20615;-69
2021/04/12 01:03:29;;;;;;;2.30;1.47;;;;;;;;;;10315792;28;20256;-70
2021/04/12 01:09:04;;;;;;;1.27;1.10;;;;;;;;;;10321458;28;20282;-69
2021/04/12 01:14:18;;;;;;;2.00;1.30;;;;;;;;;;10199497;28;20567;-68
2021/04/12 01:19:38;;;;;;;2.10;1.10;;;;;;;;;;10306135;28;20678;-68
2021/04/12 01:25:07;;;;;;;2.10;1.30;;;;;;;;;;10319097;28;20757;-69
2021/04/12 01:30:42;;;;;;;2.23;1.10;;;;;;;;;;10319198;28;20219;-69
2021/04/12 01:36:14;;;;;;;1.57;1.03;;;;;;;;;;10313701;28;20199;-69
2021/04/12 01:41:24;;;;;;;1.73;1.20;;;;;;;;;;10326012;28;20297;-70
2021/04/12 01:46:30;;;;;;;1.40;1.00;;;;;;;;;;10316582;28;20667;-70
2021/04/12 01:51:50;;;;;;;3.50;1.20;;;;;;;;;;10335893;28;20252;-68
2021/04/12 01:57:07;;;;;;;1.33;1.10;;;;;;;;;;10324950;28;20195;-69
2021/04/12 02:02:22;;;;;;;2.80;1.40;;;;;;;;;;10324207;28;20311;-69
2021/04/12 02:07:33;;;;;;;1.77;1.30;;;;;;;;;;10338015;28;20206;-70
2021/04/12 02:12:51;;;;;;;2.13;1.50;;;;;;;;;;10325020;28;20249;-69
2021/04/12 02:18:06;;;;;;;3.27;1.83;;;;;;;;;;10328501;28;20203;-70
2021/04/12 02:23:35;;;;;;;2.73;1.80;;;;;;;;;;10342199;28;20215;-69
2021/04/12 02:28:43;;;;;;;3.83;2.30;;;;;;;;;;10298857;28;20293;-69
2021/04/12 02:33:51;;;;;;;3.67;2.20;;;;;;;;;;10335212;28;20250;-69
2021/04/12 02:38:57;;;;;;;4.40;2.30;;;;;;;;;;10332173;28;20646;-68
2021/04/12 02:44:22;;;;;;;4.07;2.27;;;;;;;;;;10329261;28;20253;-70
2021/04/12 02:49:29;;;;;;;4.10;2.23;;;;;;;;;;10331648;28;20249;-70
2021/04/12 02:54:52;;;;;;;4.33;2.47;;;;;;;;;;10329210;28;20643;-71
2021/04/12 03:00:04;;;;;;;5.20;2.83;;;;;;;;;;10317259;28;20231;-69
2021/04/12 03:05:19;;;;;;;5.33;3.10;;;;;;;;;;10327051;28;20218;-69
2021/04/12 03:10:24;;;;;;;6.10;3.60;;;;;;;;;;10340229;28;20218;-69
2021/04/12 03:15:50;;;;;;;6.93;4.03;;;;;;;;;;10325581;28;20191;-69
2021/04/12 03:21:03;;;;;;;8.27;4.93;;;;;;;;;;10328316;28;20249;-69
2021/04/12 03:26:17;;;;;;;8.43;5.50;;;;;;;;;;10327955;28;20215;-70
2021/04/12 03:31:37;;;;;;;9.30;5.50;;;;;;;;;;10328061;28;20219;-70
2021/04/12 03:36:55;;;;;;;8.43;4.97;;;;;;;;;;10340352;28;20251;-70
2021/04/12 03:42:10;;;;;;;7.50;4.30;;;;;;;;;;10327271;28;20666;-70
2021/04/12 03:47:31;;;;;;;7.30;3.97;;;;;;;;;;10340145;28;20198;-69
2021/04/12 03:52:50;;;;;;;8.03;3.70;;;;;;;;;;10328965;28;20219;-69
2021/04/12 03:57:58;;;;;;;8.10;4.37;;;;;;;;;;10327613;28;20190;-70
2021/04/12 04:03:13;;;;;;;8.27;4.23;;;;;;;;;;10323125;28;20298;-73
2021/04/12 04:08:44;;;;;;;9.27;4.70;;;;;;;;;;10328042;28;20213;-68
2021/04/12 04:13:55;;;;;;;9.27;5.63;;;;;;;;;;10313423;28;20265;-69
2021/04/12 04:19:02;;;;;;;10.20;6.00;;;;;;;;;;10320330;28;20205;-70
2021/04/12 04:24:18;;;;;;;9.60;5.60;;;;;;;;;;10336026;28;20265;-68
2021/04/12 04:29:29;;;;;;;8.63;4.97;;;;;;;;;;10324032;28;20256;-69
2021/04/12 04:34:32;;;;;;;8.70;4.83;;;;;;;;;;10333329;28;20314;-68
2021/04/12 04:39:43;;;;;;;9.00;4.57;;;;;;;;;;10318062;28;20199;-68
2021/04/12 04:44:56;;;;;;;8.40;4.27;;;;;;;;;;10327773;28;20238;-69
2021/04/12 04:50:13;;;;;;;5.87;2.80;;;;;;;;;;10331427;28;20237;-70
2021/04/12 04:55:33;;;;;;;5.27;2.67;;;;;;;;;;10324467;28;20232;-69
2021/04/12 05:00:47;;;;;;;6.10;2.90;;;;;;;;;;10325090;28;20214;-68
2021/04/12 05:06:01;;;;;;;6.07;3.10;;;;;;;;;;10333033;28;20221;-69
2021/04/12 05:11:20;;;;;;;5.53;2.83;;;;;;;;;;10317218;28;20877;-68
2021/04/12 05:16:38;;;;;;;5.67;3.20;;;;;;;;;;10332342;28;20187;-68
2021/04/12 05:21:55;;;;;;;5.37;2.70;;;;;;;;;;10323977;28;20220;-69
2021/04/12 05:27:04;;;;;;;4.03;1.93;;;;;;;;;;10331346;28;20198;-68
2021/04/12 05:32:13;;;;;;;3.37;2.07;;;;;;;;;;10315885;28;20667;-70
2021/04/12 05:37:26;;;;;;;3.20;2.20;;;;;;;;;;10318955;28;20199;-68
2021/04/12 05:42:39;;;;;;;5.67;2.93;;;;;;;;;;10322400;28;20246;-69
2021/04/12 05:48:04;;;;;;;3.53;1.90;;;;;;;;;;10318707;28;20277;-69
2021/04/12 05:53:12;;;;;;;1.97;1.40;;;;;;;;;;10327002;28;20262;-69
2021/04/12 05:58:24;;;;;;;1.90;1.30;;;;;;;;;;10317998;28;20579;-69
2021/04/12 06:03:34;;;;;;;4.77;1.70;;;;;;;;;;10316172;28;20574;-69
2021/04/12 06:08:39;;;;;;;2.97;1.60;;;;;;;;;;10313524;28;20223;-68
2021/04/12 06:13:47;;;;;;;2.37;1.50;;;;;;;;;;10325306;28;20215;-70
2021/04/12 06:19:06;;;;;;;2.13;1.27;;;;;;;;;;10302690;28;20199;-68
2021/04/12 06:24:14;;;;;;;3.07;1.30;;;;;;;;;;10312269;28;20290;-70
2021/04/12 06:29:39;;;;;;;1.90;1.30;;;;;;;;;;10316242;28;20287;-69
2021/04/12 06:34:54;;;;;;;1.90;1.30;;;;;;;;;;10318621;28;20199;-68
2021/04/12 06:40:17;;;;;;;2.80;1.40;;;;;;;;;;10316940;28;20418;-69
2021/04/12 06:45:45;;;;;;;1.67;1.23;;;;;;;;;;10307160;28;20246;-69
2021/04/12 06:51:08;;;;;;;3.00;1.40;;;;;;;;;;10315616;28;20241;-68
2021/04/12 06:56:42;;;;;;;3.07;1.60;;;;;;;;;;10319469;28;20283;-68
2021/04/12 07:02:09;;;;;;;2.23;1.50;;;;;;;;;;10317577;28;20215;-68
2021/04/12 07:07:29;;;;;;;3.40;1.40;;;;;;;;;;10319397;28;20222;-68
2021/04/12 07:12:57;;;;;;;2.97;1.07;;;;;;;;;;10325674;28;20341;-68
2021/04/12 07:18:17;;;;;;;3.83;1.57;;;;;;;;;;10319407;28;20567;-68
2021/04/12 07:23:42;;;;;;;2.20;1.33;;;;;;;;;;10313597;28;20261;-69
2021/04/12 07:29:02;;;;;;;3.70;2.00;;;;;;;;;;10303783;28;20263;-69
2021/04/12 07:34:17;;;;;;;3.27;1.40;;;;;;;;;;10319699;28;20211;-70
2021/04/12 07:39:44;;;;;;;2.87;1.60;;;;;;;;;;10318284;28;20566;-69
2021/04/12 07:45:05;;;;;;;2.63;1.37;;;;;;;;;;10310235;28;20207;-69
2021/04/12 07:50:25;;;;;;;2.40;1.40;;;;;;;;;;10326561;28;20245;-69
2021/04/12 07:55:39;;;;;;;4.73;1.90;;;;;;;;;;10329572;28;20298;-70
2021/04/12 08:00:56;;;;;;;3.17;1.63;;;;;;;;;;10309981;28;20215;-70
2021/04/12 08:06:13;;;;;;;3.37;1.73;;;;;;;;;;10318870;28;20238;-71
2021/04/12 08:11:48;;;;;;;2.13;1.47;;;;;;;;;;10318982;28;20224;-69
2021/04/12 08:17:15;;;;;;;3.17;1.77;;;;;;;;;;10325214;28;20233;-69
2021/04/12 08:22:38;;;;;;;4.10;2.00;;;;;;;;;;10324001;28;20234;-70
2021/04/12 08:27:56;;;;;;;4.87;2.27;;;;;;;;;;10321709;28;20191;-69
2021/04/12 08:33:28;;;;;;;4.43;2.13;;;;;;;;;;10329468;28;20214;-69
2021/04/12 08:38:57;;;;;;;5.33;2.30;;;;;;;;;;10308862;28;20234;-69
2021/04/12 08:44:13;;;;;;;5.37;2.50;;;;;;;;;;10285016;28;20679;-69
2021/04/12 08:49:32;;;;;;;4.93;2.47;;;;;;;;;;10311296;28;20210;-69
2021/04/12 08:54:55;;;;;;;5.00;2.67;;;;;;;;;;10314598;28;20206;-69
2021/04/12 09:00:29;;;;;;;4.80;2.13;;;;;;;;;;10321439;28;20237;-70
2021/04/12 09:05:40;;;;;;;5.57;2.67;;;;;;;;;;10314545;28;20433;-69
2021/04/12 09:11:02;;;;;;;5.73;2.60;;;;;;;;;;10307930;28;20321;-70
2021/04/12 09:16:16;;;;;;;5.00;2.53;;;;;;;;;;10299416;28;20198;-69
2021/04/12 09:21:29;;;;;;;4.23;2.17;;;;;;;;;;10308814;28;20289;-69
2021/04/12 09:26:47;;;;;;;4.97;2.60;;;;;;;;;;10314267;28;20215;-70
2021/04/12 09:32:02;;;;;;;3.87;2.37;;;;;;;;;;10306939;28;20223;-69
2021/04/12 09:37:18;;;;;;;4.77;2.50;;;;;;;;;;10331687;28;20209;-70
2021/04/12 09:42:47;;;;;;;4.70;2.10;;;;;;;;;;10309827;28;20308;-70
2021/04/12 09:48:14;;;;;;;5.67;2.93;;;;;;;;;;10318226;28;20230;-69
2021/04/12 09:53:34;;;;;;;3.93;2.17;;;;;;;;;;10332265;28;20696;-69
2021/04/12 09:59:00;;;;;;;5.03;2.20;;;;;;;;;;10301890;28;20217;-69
2021/04/12 10:04:20;;;;;;;4.03;2.10;;;;;;;;;;10311196;28;20620;-69
2021/04/12 10:09:37;;;;;;;4.90;2.30;;;;;;;;;;10308545;28;20662;-70
2021/04/12 10:14:45;;;;;;;4.87;2.33;;;;;;;;;;10281768;28;20257;-72
2021/04/12 10:19:48;;;;;;;4.00;2.43;;;;;;;;;;10307097;28;20266;-70
2021/04/12 10:24:53;;;;;;;3.80;2.13;;;;;;;;;;10315952;28;20206;-70
2021/04/12 10:29:56;;;;;;;4.90;2.57;;;;;;;;;;10319175;28;20237;-71
2021/04/12 10:35:00;;;;;;;4.93;2.50;;;;;;;;;;10312977;28;20272;-70
2021/04/12 10:40:08;;;;;;;3.80;2.30;;;;;;;;;;10319605;28;20696;-70
2021/04/12 10:45:12;;;;;;;6.50;2.53;;;;;;;;;;10297006;28;20219;-69
2021/04/12 10:50:20;;;;;;;6.27;2.40;;;;;;;;;;10302151;28;20224;-70
2021/04/12 10:55:26;;;;;;;4.60;2.30;;;;;;;;;;10327744;28;20298;-71
2021/04/12 11:00:47;;;;;;;4.80;2.40;;;;;;;;;;10309143;28;20215;-70
2021/04/12 11:05:59;;;;;;;5.07;2.43;;;;;;;;;;10318129;28;20320;-70
2021/04/12 11:11:08;;;;;;;3.47;2.13;;;;;;;;;;10321724;28;20277;-69
2021/04/12 11:16:14;;;;;;;4.73;2.03;;;;;;;;;;10299544;28;20203;-69
2021/04/12 11:21:23;;;;;;;4.90;2.40;;;;;;;;;;10322165;28;20238;-71
2021/04/12 11:26:27;;;;;;;4.63;2.20;;;;;;;;;;10321275;28;20211;-70
2021/04/12 11:31:42;;;;;;;4.33;2.37;;;;;;;;;;10313257;28;20690;-70
2021/04/12 11:36:54;;;;;;;5.70;2.50;;;;;;;;;;10315091;28;20267;-71
2021/04/12 11:41:58;;;;;;;4.13;2.27;;;;;;;;;;10328673;28;20210;-70
2021/04/12 11:47:10;;;;;;;4.27;2.10;;;;;;;;;;10324847;28;20207;-69
2021/04/12 11:52:16;;;;;;;4.63;2.40;;;;;;;;;;10341147;28;20288;-70
2021/04/12 11:57:25;;;;;;;4.33;2.30;;;;;;;;;;10319598;28;20250;-69
2021/04/12 12:02:37;;;;;;;5.23;2.30;;;;;;;;;;10311440;28;20243;-68
2021/04/12 12:07:43;;;;;;;5.40;2.73;;;;;;;;;;10321379;28;20726;-69
2021/04/12 12:12:52;;;;;;;5.03;2.53;;;;;;;;;;10307075;28;20567;-70
2021/04/12 12:17:58;;;;;;;4.37;2.50;;;;;;;;;;10327714;28;20211;-71
2021/04/12 12:23:05;;;;;;;4.73;2.70;;;;;;;;;;10319809;28;20223;-70
2021/04/12 12:28:25;;;;;;;5.87;2.97;;;;;;;;;;10320943;28;20187;-69
2021/04/12 12:33:32;;;;;;;5.43;2.73;;;;;;;;;;10289654;28;20215;-70
2021/04/12 12:38:42;;;;;;;4.73;2.70;;;;;;;;;;10302093;28;20287;-69
2021/04/12 12:43:44;;;;;;;4.77;2.60;;;;;;;;;;10315321;28;20246;-70
2021/04/12 12:48:48;;;;;;;6.03;3.00;;;;;;;;;;10308158;28;20195;-71
2021/04/12 12:53:52;;;;;;;6.07;2.67;;;;;;;;;;10301954;28;20223;-71
2021/04/12 12:58:58;;;;;;;4.23;1.67;;;;;;;;;;10313119;28;20211;-70
2021/04/12 13:04:11;;;;;;;4.87;2.60;;;;;;;;;;10314717;28;20222;-69
2021/04/12 13:09:19;;;;;;;4.67;2.50;;;;;;;;;;10330134;28;20199;-69
2021/04/12 13:14:33;;;;;;;6.10;2.67;;;;;;;;;;10311307;28;20305;-70
2021/04/12 13:19:42;;;;;;;5.33;2.80;;;;;;;;;;10309664;28;20510;-70
2021/04/12 13:24:45;;;;;;;5.87;2.90;;;;;;;;;;10331069;28;20693;-70
2021/04/12 13:30:03;;;;;;;4.43;2.47;;;;;;;;;;10317525;28;20384;-69
2021/04/12 13:35:08;;;;;;;5.33;2.70;;;;;;;;;;10304562;28;20787;-69
2021/04/12 13:40:19;;;;;;;3.20;1.80;;;;;;;;;;10315227;28;20702;-70
2021/04/12 13:45:25;;;;;;;4.83;2.53;;;;;;;;;;10301576;28;20675;-69
2021/04/12 13:50:28;;;;;;;5.50;2.83;;;;;;;;;;10323440;28;20563;-69
2021/04/12 13:55:32;;;;;;;6.07;2.67;;;;;;;;;;10312539;28;20215;-70
2021/04/12 14:00:34;;;;;;;4.63;2.50;;;;;;;;;;10329867;28;20559;-70
2021/04/12 14:05:37;;;;;;;4.03;2.33;;;;;;;;;;10329201;28;20243;-71
2021/04/12 14:10:43;;;;;;;5.93;2.77;;;;;;;;;;10313560;28;20262;-70
2021/04/12 14:15:50;;;;;;;5.70;2.73;;;;;;;;;;10320697;28;20253;-69
2021/04/12 14:20:52;;;;;;;5.10;3.00;;;;;;;;;;10320055;28;20206;-70
2021/04/12 14:25:57;;;;;;;5.47;2.77;;;;;;;;;;10316221;28;20218;-70
2021/04/12 14:31:01;;;;;;;5.77;2.80;;;;;;;;;;10320196;28;20290;-71
2021/04/12 14:36:04;;;;;;;5.60;3.00;;;;;;;;;;10323046;28;20209;-71
2021/04/12 14:41:09;;;;;;;5.53;3.10;;;;;;;;;;10320848;28;20297;-71
2021/04/12 14:46:12;;;;;;;8.27;3.60;;;;;;;;;;10321352;28;20254;-71
2021/04/12 14:51:17;;;;;;;7.67;4.03;;;;;;;;;;10323910;28;20335;-69
2021/04/12 14:56:22;;;;;;;6.70;3.70;;;;;;;;;;10320830;28;22247;-70
2021/04/12 15:01:26;;;;;;;7.60;3.93;;;;;;;;;;10310085;28;20222;-70
2021/04/12 15:06:31;;;;;;;7.63;3.70;;;;;;;;;;10309900;28;20219;-70
2021/04/12 15:11:38;;;;;;;7.60;4.00;;;;;;;;;;10310436;28;20265;-71
2021/04/12 15:16:46;;;;;;;8.63;4.47;;;;;;;;;;10315012;28;20270;-69
2021/04/12 15:21:48;;;;;;;7.80;3.83;;;;;;;;;;10319050;28;20260;-71
2021/04/12 15:32:17;;;;;;;7.10;3.70;;;;;;;;;;10279844;28;20238;-67
2021/04/12 15:37:27;;;;;;;7.60;3.97;;;;;;;;;;10302271;28;20302;-67
2021/04/12 15:42:30;;;;;;;7.80;3.83;;;;;;;;;;10279595;28;20206;-67
2021/04/12 15:47:33;;;;;;;8.10;4.27;;;;;;;;;;10278093;28;20294;-67
2021/04/12 15:52:40;;;;;;;7.73;4.07;;;;;;;;;;10274376;28;20196;-68
2021/04/12 15:57:43;;;;;;;7.80;4.10;;;;;;;;;;10271231;28;20726;-67
2021/04/12 16:02:48;;;;;;;7.90;3.90;;;;;;;;;;10274907;28;20208;-67
2021/04/12 16:07:52;;;;;;;7.43;3.73;;;;;;;;;;10271932;28;20596;-67
2021/04/12 16:13:14;;;;;;;5.53;2.83;;;;;;;;;;10277611;28;20256;-67
2021/04/12 16:18:23;;;;;;;7.97;4.17;;;;;;;;;;10271864;28;20696;-69
2021/04/12 16:23:29;;;;;;;9.10;4.70;;;;;;;;;;10271084;28;20667;-67
2021/04/12 16:28:33;;;;;;;8.67;5.03;;;;;;;;;;10271579;28;20215;-67
2021/04/12 16:33:40;;;;;;;9.17;4.20;;;;;;;;;;10278573;28;20200;-68
2021/04/12 16:38:44;;;;;;;9.03;4.37;;;;;;;;;;10278888;28;20227;-66
2021/04/12 16:43:49;;;;;;;10.70;5.47;;;;;;;;;;10280916;28;20243;-67
2021/04/12 16:48:53;;;;;;;12.03;6.33;;;;;;;;;;10279877;28;20295;-70
2021/04/12 16:53:58;;;;;;;10.03;5.80;;;;;;;;;;10260262;28;20191;-68
2021/04/12 16:59:05;;;;;;;12.10;6.33;;;;;;;;;;10277660;28;20219;-69
2021/04/12 17:04:14;;;;;;;10.27;6.13;;;;;;;;;;10258949;28;20297;-69
2021/04/12 17:09:21;;;;;;;12.13;6.80;;;;;;;;;;10269010;28;20244;-69
2021/04/12 17:14:26;;;;;;;11.30;6.47;;;;;;;;;;10273975;28;20215;-68
2021/04/12 17:19:32;;;;;;;12.83;6.33;;;;;;;;;;10266818;28;20226;-67
2021/04/12 17:24:36;;;;;;;9.57;5.03;;;;;;;;;;10272999;28;20686;-68
2021/04/12 17:29:42;;;;;;;11.30;6.33;;;;;;;;;;10271804;28;20282;-67
2021/04/12 17:34:47;;;;;;;12.57;6.40;;;;;;;;;;10280659;28;20587;-68
2021/04/12 17:39:50;;;;;;;9.30;5.30;;;;;;;;;;10280465;28;20270;-70
2021/04/12 17:44:57;;;;;;;12.77;7.90;;;;;;;;;;10272166;28;20211;-66
2021/04/12 17:50:03;;;;;;;14.70;7.57;;;;;;;;;;10262360;28;20221;-67
2021/04/12 17:55:08;;;;;;;12.33;6.40;;;;;;;;;;10267654;28;20596;-67
2021/04/12 18:00:14;;;;;;;15.30;10.03;;;;;;;;;;10265738;28;20224;-67
2021/04/12 18:05:26;;;;;;;11.60;6.30;;;;;;;;;;10268367;28;20738;-69
2021/04/12 18:10:28;;;;;;;14.47;8.23;;;;;;;;;;10268851;28;20302;-67
2021/04/12 18:15:33;;;;;;;13.07;8.00;;;;;;;;;;10270663;28;20199;-68
2021/04/12 18:20:41;;;;;;;14.57;8.50;;;;;;;;;;10266345;28;20307;-68
2021/04/12 18:25:46;;;;;;;13.67;7.33;;;;;;;;;;10270189;28;20202;-67
2021/04/12 18:30:50;;;;;;;11.07;6.30;;;;;;;;;;10266757;28;20352;-69
2021/04/12 18:35:56;;;;;;;13.97;5.40;;;;;;;;;;10268942;28;20616;-69
2021/04/12 18:40:58;;;;;;;10.87;5.67;;;;;;;;;;10267720;28;20306;-68
2021/04/12 18:46:22;;;;;;;13.30;7.73;;;;;;;;;;10278909;28;20304;-68
2021/04/12 18:51:26;;;;;;;14.77;7.27;;;;;;;;;;10270390;28;20222;-69
2021/04/12 18:56:33;;;;;;;10.83;6.23;;;;;;;;;;10270588;28;20192;-67
2021/04/12 19:01:46;;;;;;;13.37;7.10;;;;;;;;;;10274968;28;20224;-67
2021/04/12 19:06:50;;;;;;;9.13;4.57;;;;;;;;;;10269500;28;20180;-67
2021/04/12 19:11:53;;;;;;;10.97;6.20;;;;;;;;;;10272467;28;20192;-68
2021/04/12 19:16:58;;;;;;;11.77;6.60;;;;;;;;;;10275267;28;20214;-67
2021/04/12 19:22:13;;;;;;;10.00;5.03;;;;;;;;;;10272938;28;20476;-67
2021/04/12 19:27:18;;;;;;;10.23;5.03;;;;;;;;;;10273615;28;20941;-68
2021/04/12 19:32:24;;;;;;;8.67;4.40;;;;;;;;;;10271976;28;20290;-67
2021/04/12 19:37:29;;;;;;;9.60;5.20;;;;;;;;;;10276774;28;20226;-67
2021/04/12 19:42:39;;;;;;;9.97;4.80;;;;;;;;;;10267205;28;20196;-67
2021/04/12 19:47:52;;;;;;;9.87;5.33;;;;;;;;;;10285104;28;20211;-68
2021/04/12 19:53:05;;;;;;;10.73;4.90;;;;;;;;;;10272638;28;20279;-70
2021/04/12 19:58:10;;;;;;;8.70;4.80;;;;;;;;;;10273754;28;20725;-69
2021/04/12 20:03:14;;;;;;;4.83;2.07;;;;;;;;;;10271723;28;20203;-70
2021/04/12 20:08:18;;;;;;;9.80;4.90;;;;;;;;;;10269437;28;20282;-68
2021/04/12 20:13:27;;;;;;;9.90;5.30;;;;;;;;;;10271132;28;20195;-69
2021/04/12 20:18:38;;;;;;;6.93;2.90;;;;;;;;;;10275795;28;20225;-68
2021/04/12 20:24:01;;;;;;;10.53;4.90;;;;;;;;;;10267112;28;20575;-67
2021/04/12 20:29:07;;;;;;;10.43;6.45;;;;;;;;;;10272336;28;20458;-69
2021/04/12 20:34:18;;;;;;;9.33;5.40;;;;;;;;;;10280467;28;20247;-69
2021/04/12 20:39:26;;;;;;;7.97;3.87;;;;;;;;;;10275568;28;20646;-68
2021/04/12 20:44:43;;;;;;;9.40;4.77;;;;;;;;;;10275832;28;20214;-70
2021/04/12 20:49:46;;;;;;;9.03;4.97;;;;;;;;;;10279863;28;20289;-69
2021/04/12 20:54:57;;;;;;;10.43;5.93;;;;;;;;;;10272794;28;20211;-68
2021/04/12 21:00:06;;;;;;;9.77;4.87;;;;;;;;;;10276186;28;20208;-67
2021/04/12 21:05:09;;;;;;;7.90;3.93;;;;;;;;;;10280813;28;20290;-68
2021/04/12 21:10:27;;;;;;;8.33;3.60;;;;;;;;;;10278783;28;20223;-69
2021/04/12 21:15:34;;;;;;;9.10;4.17;;;;;;;;;;10276743;28;20223;-68
2021/04/12 21:20:37;;;;;;;8.03;4.10;;;;;;;;;;10276497;28;20219;-70
2021/04/12 21:25:40;;;;;;;5.30;2.57;;;;;;;;;;10274468;28;20282;-68
2021/04/12 21:30:44;;;;;;;7.27;3.97;;;;;;;;;;10279402;28;20231;-67
2021/04/12 21:35:48;;;;;;;7.63;3.53;;;;;;;;;;10276258;28;20238;-67
2021/04/12 21:40:53;;;;;;;8.33;3.37;;;;;;;;;;10279226;28;20279;-71
2021/04/12 21:46:02;;;;;;;6.73;3.20;;;;;;;;;;10277961;28;20188;-68
2021/04/12 21:51:17;;;;;;;7.43;3.70;;;;;;;;;;10273357;28;20730;-67
2021/04/12 21:56:25;;;;;;;6.63;3.50;;;;;;;;;;10279803;28;20955;-68
2021/04/12 22:01:29;;;;;;;3.13;1.70;;;;;;;;;;10280293;28;20342;-72
2021/04/12 22:06:34;;;;;;;5.80;3.07;;;;;;;;;;10279123;28;20584;-69
2021/04/12 22:12:10;;;;;;;3.83;1.50;;;;;;;;;;10279672;28;20199;-70
2021/04/12 22:17:16;;;;;;;5.63;2.50;;;;;;;;;;10281192;28;20214;-69
2021/04/12 22:22:22;;;;;;;5.20;2.57;;;;;;;;;;10289105;28;20207;-69
2021/04/12 22:27:25;;;;;;;6.60;2.80;;;;;;;;;;10277040;28;20662;-69
2021/04/12 22:32:34;;;;;;;6.97;3.03;;;;;;;;;;10288540;28;20302;-68
2021/04/12 22:43:01;;;;;;;6.70;3.33;;;;;;;;;;10279108;28;20196;-68
2021/04/12 22:48:03;;;;;;;2.40;1.40;;;;;;;;;;10286242;28;20222;-68
2021/04/12 22:53:09;;;;;;;6.37;2.90;;;;;;;;;;10283154;28;20282;-69
2021/04/12 22:58:33;;;;;;;7.00;3.10;;;;;;;;;;10282737;28;20306;-69
2021/04/12 23:03:51;;;;;;;2.80;1.47;;;;;;;;;;10282238;28;20195;-67
2021/04/12 23:09:07;;;;;;;1.63;0.87;;;;;;;;;;10281871;28;20537;-69
2021/04/12 23:14:09;;;;;;;6.87;3.00;;;;;;;;;;10283310;28;20199;-70
2021/04/12 23:19:31;;;;;;;4.30;1.90;;;;;;;;;;10281094;28;20233;-67
2021/04/12 23:24:36;;;;;;;2.83;1.50;;;;;;;;;;10281811;28;20215;-69
2021/04/12 23:29:44;;;;;;;7.07;3.03;;;;;;;;;;10283353;28;20298;-69
2021/04/12 23:34:46;;;;;;;3.87;1.40;;;;;;;;;;10285996;28;20239;-67
2021/04/12 23:39:49;;;;;;;3.93;1.80;;;;;;;;;;10285768;28;20247;-68
2021/04/12 23:44:53;;;;;;;4.87;2.60;;;;;;;;;;10276921;28;20252;-68
2021/04/12 23:49:55;;;;;;;6.47;2.50;;;;;;;;;;10283790;28;20239;-69
2021/04/12 23:54:57;;;;;;;6.57;2.50;;;;;;;;;;10282621;28;20686;-68
2021/04/12 23:59:59;;;;;;;5.73;2.70;;;;;;;;;;10276995;28;20219;-68
